Time;durP1;ratioP1;P1;durP2;ratioP2;P2;SDS_P1;SDS_P2;PMS_P1;PMS_P2;Temp;Humidity;BMP_temperature;BMP_pressure;BME280_temperature;BME280_humidity;BME280_pressure;Samples;Min_cycle;Max_cycle;Signal;HPM_P1;HPM_P2
2022/10/03 00:06:32;;;;;;;0.22;0.22;;;;;;;17.28;100.00;102084.59;20917051;27;20072;-74
2022/10/03 00:17:02;;;;;;;0.52;0.28;;;;;;;17.28;100.00;102099.91;20888921;27;20053;-74
2022/10/03 00:27:13;;;;;;;0.25;0.15;;;;;;;17.28;100.00;102110.66;20932152;27;20050;-74
2022/10/03 00:37:26;;;;;;;0.95;0.30;;;;;;;17.28;100.00;102121.44;20919933;27;20122;-74
2022/10/03 00:47:33;;;;;;;0.30;0.10;;;;;;;17.28;100.00;102121.44;20946083;27;20095;-74
2022/10/03 00:57:41;;;;;;;0.30;0.10;;;;;;;17.27;100.00;102133.16;20936899;27;20057;-74
2022/10/03 01:08:24;;;;;;;0.98;0.30;;;;;;;17.27;100.00;102147.47;20844858;27;20128;-74
2022/10/03 01:18:36;;;;;;;0.93;0.30;;;;;;;17.25;100.00;102155.66;20861951;27;20076;-74
2022/10/03 01:39:18;;;;;;;0.45;0.30;;;;;;;17.27;100.00;102168.16;20992325;27;20053;-74
2022/10/03 01:49:31;;;;;;;0.85;0.40;;;;;;;17.24;100.00;102178.16;20841606;27;20433;-74
2022/10/03 01:59:59;;;;;;;0.50;0.38;;;;;;;17.24;100.00;102170.09;20875002;27;20057;-74
2022/10/03 02:10:35;;;;;;;0.45;0.45;;;;;;;17.24;100.00;102175.47;20936327;27;20054;-74
2022/10/03 02:20:46;;;;;;;0.30;0.22;;;;;;;17.01;100.00;102141.13;20866185;27;20044;-74
2022/10/03 02:31:32;;;;;;;0.93;0.20;;;;;;;17.23;100.00;102178.25;20832250;27;20132;-74
2022/10/03 02:41:56;;;;;;;1.45;0.30;;;;;;;17.23;100.00;102184.50;20763528;27;20050;-74
2022/10/03 02:52:17;;;;;;;0.63;0.20;;;;;;;17.22;100.00;102193.50;20782948;27;20570;-74
2022/10/03 03:02:53;;;;;;;1.58;0.22;;;;;;;17.22;100.00;102198.06;20731762;27;20124;-74
2022/10/03 03:13:05;;;;;;;0.10;0.10;;;;;;;17.21;100.00;102207.94;20893689;27;20062;-74
2022/10/03 03:23:46;;;;;;;0.43;0.20;;;;;;;17.22;100.00;102216.88;20857838;27;20494;-74
2022/10/03 03:33:56;;;;;;;0.30;0.20;;;;;;;17.21;100.00;102197.16;20980466;27;20052;-74
2022/10/03 03:44:25;;;;;;;0.73;0.40;;;;;;;17.21;100.00;102205.25;20861791;27;20060;-74
2022/10/03 03:54:50;;;;;;;0.30;0.30;;;;;;;17.20;100.00;102208.91;20738606;27;20048;-74
2022/10/03 04:05:14;;;;;;;0.90;0.30;;;;;;;17.16;100.00;102204.69;20699776;28;20046;-74
2022/10/03 04:15:25;;;;;;;0.20;0.20;;;;;;;17.19;100.00;102215.25;21043771;27;20053;-74
2022/10/03 04:25:30;;;;;;;1.08;0.30;;;;;;;17.23;100.00;102216.81;20718909;27;20081;-75
2022/10/03 04:35:50;;;;;;;4.00;0.80;;;;;;;17.34;100.00;102217.91;20735816;27;20637;-74
2022/10/03 04:46:03;;;;;;;2.47;0.55;;;;;;;17.44;100.00;102229.81;20785179;27;20101;-74
2022/10/03 04:56:33;;;;;;;3.55;0.70;;;;;;;17.48;100.00;102225.09;20994258;27;20094;-74
2022/10/03 05:06:59;;;;;;;1.77;0.60;;;;;;;17.51;100.00;102231.13;20729852;27;20112;-75
2022/10/03 05:17:27;;;;;;;2.35;0.60;;;;;;;17.52;100.00;102230.16;20799111;27;20054;-75
2022/10/03 05:27:34;;;;;;;4.38;0.60;;;;;;;17.54;100.00;102230.91;20731454;27;20383;-75
2022/10/03 05:37:54;;;;;;;1.55;0.60;;;;;;;17.55;100.00;102231.81;20792882;27;20053;-74
2022/10/03 05:48:18;;;;;;;1.52;0.65;;;;;;;17.56;100.00;102251.50;20896180;27;20054;-74
2022/10/03 05:58:42;;;;;;;0.57;0.20;;;;;;;17.56;100.00;102264.97;20733768;27;20093;-75
2022/10/03 06:09:17;;;;;;;1.00;0.30;;;;;;;17.53;100.00;102271.44;20854272;27;20444;-75
2022/10/03 06:19:42;;;;;;;0.52;0.50;;;;;;;17.57;100.00;102282.84;20744792;27;20058;-74
2022/10/03 06:30:15;;;;;;;0.63;0.20;;;;;;;17.57;100.00;102283.72;20759540;27;20054;-75
2022/10/03 06:40:49;;;;;;;0.40;0.30;;;;;;;17.58;100.00;102289.97;20782413;27;20148;-75
2022/10/03 06:51:15;;;;;;;0.73;0.32;;;;;;;17.58;100.00;102311.50;20734843;27;20134;-74
2022/10/03 07:01:39;;;;;;;2.45;0.50;;;;;;;17.59;100.00;102314.09;20732780;27;20061;-75
2022/10/03 07:11:45;;;;;;;2.10;0.63;;;;;;;17.62;100.00;102316.59;20739895;27;20053;-74
2022/10/03 07:22:12;;;;;;;2.10;0.47;;;;;;;17.66;100.00;102320.81;20774702;27;20446;-74
2022/10/03 07:32:22;;;;;;;2.20;0.50;;;;;;;17.71;100.00;102328.59;20733546;27;20095;-75
2022/10/03 07:42:52;;;;;;;2.20;0.52;;;;;;;17.82;100.00;102328.75;20753424;27;20050;-74
2022/10/03 07:53:12;;;;;;;6.03;1.00;;;;;;;17.94;100.00;102337.88;20724844;27;20476;-75
2022/10/03 08:03:27;;;;;;;9.70;2.15;;;;;;;17.95;100.00;102331.53;20743072;27;20099;-74
2022/10/03 08:13:40;;;;;;;3.92;1.20;;;;;;;18.17;100.00;102361.59;20752279;27;20049;-74
2022/10/03 08:24:23;;;;;;;4.70;0.90;;;;;;;18.25;100.00;102378.13;20738660;27;20450;-74
2022/10/03 08:34:54;;;;;;;3.13;0.90;;;;;;;18.16;100.00;102366.09;20739322;27;20257;-75
2022/10/03 08:45:18;;;;;;;6.05;1.00;;;;;;;18.01;100.00;102327.56;20741547;27;20045;-75
2022/10/03 08:55:46;;;;;;;3.25;0.75;;;;;;;18.31;100.00;102383.09;20764311;27;20596;-75
2022/10/03 09:05:57;;;;;;;4.40;0.82;;;;;;;18.30;100.00;102377.78;20725723;27;20057;-75
2022/10/03 09:16:27;;;;;;;2.95;0.85;;;;;;;18.27;100.00;102384.25;20720575;27;20049;-75
2022/10/03 09:26:43;;;;;;;1.40;0.60;;;;;;;18.26;100.00;102385.22;20706381;27;20058;-75
2022/10/03 09:37:23;;;;;;;0.77;0.40;;;;;;;18.23;100.00;102389.00;20712633;27;20053;-75
2022/10/03 09:48:02;;;;;;;3.47;0.80;;;;;;;18.23;100.00;102378.19;20698189;27;20501;-74
2022/10/03 09:58:16;;;;;;;2.00;0.90;;;;;;;18.07;100.00;102346.00;20702783;27;20050;-75
2022/10/03 10:08:26;;;;;;;1.80;0.70;;;;;;;18.24;100.00;102362.91;20740716;27;20474;-74
2022/10/03 10:18:34;;;;;;;1.77;0.60;;;;;;;18.23;100.00;102366.56;20719126;27;20061;-74
2022/10/03 10:28:52;;;;;;;1.60;0.50;;;;;;;18.08;100.00;102336.13;20715728;27;20700;-75
2022/10/03 10:39:31;;;;;;;2.60;0.52;;;;;;;18.23;100.00;102355.78;20747799;27;20062;-74
2022/10/03 10:50:10;;;;;;;2.08;0.40;;;;;;;18.22;100.00;102348.66;20739856;27;20111;-74
2022/10/03 11:00:33;;;;;;;1.77;0.50;;;;;;;18.22;100.00;102348.66;20762842;27;20068;-74
2022/10/03 11:10:39;;;;;;;1.35;0.43;;;;;;;18.22;100.00;102351.38;20739725;27;20829;-74
2022/10/03 11:20:59;;;;;;;1.20;0.30;;;;;;;18.21;100.00;102349.63;20740681;27;20064;-74
2022/10/03 11:31:14;;;;;;;1.75;0.50;;;;;;;18.21;100.00;102349.63;20716150;27;20410;-74
2022/10/03 11:41:20;;;;;;;;;;;;;;;18.20;100.00;102345.22;20706340;27;20110;-74
2022/10/03 11:51:42;;;;;;;1.77;0.40;;;;;;;18.17;100.00;102348.13;20712067;27;20278;-74
2022/10/03 12:02:12;;;;;;;0.65;0.40;;;;;;;18.20;100.00;102353.31;20731099;27;20124;-73
2022/10/03 12:12:26;;;;;;;2.25;0.57;;;;;;;18.26;100.00;102350.19;20709699;27;20063;-73
2022/10/03 12:22:56;;;;;;;1.37;0.47;;;;;;;18.33;100.00;102334.44;20703888;27;20058;-73
2022/10/03 12:33:09;;;;;;;2.38;0.50;;;;;;;18.37;100.00;102347.63;20720151;27;20057;-74
2022/10/03 12:43:28;;;;;;;2.22;0.50;;;;;;;18.41;100.00;102337.50;20744320;28;20472;-73
2022/10/03 12:53:52;;;;;;;1.38;0.75;;;;;;;18.45;100.00;102343.53;20724691;27;20053;-74
2022/10/03 13:04:04;;;;;;;0.65;0.28;;;;;;;18.35;100.00;102319.91;20806703;27;20050;-73
2022/10/03 13:14:44;;;;;;;1.50;0.35;;;;;;;18.44;100.00;102328.31;20784678;27;20059;-73
2022/10/03 13:24:51;;;;;;;0.52;0.30;;;;;;;18.40;100.00;102315.06;20762885;27;20053;-73
2022/10/03 13:45:43;;;;;;;1.45;0.40;;;;;;;18.34;100.00;102312.78;20770514;27;20098;-74
2022/10/03 13:55:49;;;;;;;1.58;0.40;;;;;;;18.40;100.00;102309.66;20788866;27;20048;-73
2022/10/03 14:06:03;;;;;;;1.45;0.40;;;;;;;18.33;100.00;102286.78;20794854;27;20504;-73
2022/10/03 14:16:19;;;;;;;1.73;0.75;;;;;;;18.40;100.00;102289.94;20768791;27;20497;-73
2022/10/03 14:26:28;;;;;;;1.17;0.40;;;;;;;18.30;100.00;102278.91;20777259;27;20064;-73
2022/10/03 14:36:48;;;;;;;0.50;0.47;;;;;;;18.36;100.00;102270.41;20783059;27;20048;-73
2022/10/03 14:46:56;;;;;;;0.77;0.30;;;;;;;18.40;100.00;102260.28;20743689;27;20410;-73
2022/10/03 14:57:23;;;;;;;2.28;0.40;;;;;;;18.38;100.00;102254.97;20711743;27;20049;-74
2022/10/03 15:07:38;;;;;;;2.42;0.30;;;;;;;18.33;100.00;102251.75;20733342;27;20046;-75
2022/10/03 15:17:50;;;;;;;0.90;0.30;;;;;;;18.21;100.00;102231.03;20746362;27;20041;-74
2022/10/03 15:27:53;;;;;;;1.38;0.38;;;;;;;18.26;100.00;102228.88;20738637;27;20045;-74
2022/10/03 15:38:09;;;;;;;0.93;0.38;;;;;;;18.07;100.00;102203.19;20736931;27;20133;-74
2022/10/03 15:48:16;;;;;;;2.63;0.68;;;;;;;18.08;100.00;102223.78;20721497;27;20064;-74
2022/10/03 15:58:24;;;;;;;0.20;0.20;;;;;;;18.18;100.00;102242.03;20696233;27;20537;-74
2022/10/03 16:08:28;;;;;;;1.23;0.30;;;;;;;17.92;100.00;102196.13;20735837;27;20454;-73
2022/10/03 16:19:00;;;;;;;0.65;0.35;;;;;;;18.12;100.00;102219.03;20720603;27;20188;-74
2022/10/03 16:29:12;;;;;;;0.50;0.28;;;;;;;17.93;100.00;102203.25;20747449;27;20062;-73
2022/10/03 16:39:23;;;;;;;1.85;0.60;;;;;;;18.03;100.00;102219.69;20732622;27;20645;-74
2022/10/03 16:59:59;;;;;;;0.70;0.30;;;;;;;17.94;100.00;102194.19;20682826;27;20106;-74
2022/10/03 17:10:01;;;;;;;0.90;0.30;;;;;;;17.54;100.00;102123.22;20699989;27;20050;-74
2022/10/03 17:20:09;;;;;;;3.40;0.50;;;;;;;17.89;100.00;102188.25;20739293;27;20046;-74
2022/10/03 17:30:11;;;;;;;0.65;0.32;;;;;;;17.89;100.00;102180.19;20768625;27;20098;-75
2022/10/03 17:40:21;;;;;;;1.02;0.47;;;;;;;17.80;100.00;102166.38;20777448;27;20049;-74
2022/10/03 17:50:29;;;;;;;1.20;0.20;;;;;;;17.88;100.00;102190.06;20751245;27;20121;-74
2022/10/03 18:00:57;;;;;;;1.75;0.30;;;;;;;17.52;100.00;102135.91;20726178;27;20103;-75
2022/10/03 18:11:01;;;;;;;0.52;0.32;;;;;;;17.76;100.00;102178.31;20713419;27;20057;-74
2022/10/03 18:21:11;;;;;;;0.80;0.40;;;;;;;17.83;100.00;102181.44;20748139;27;20068;-74
2022/10/03 18:31:18;;;;;;;1.15;0.30;;;;;;;17.83;100.00;102181.44;20734708;27;20054;-74
2022/10/03 18:41:20;;;;;;;0.45;0.22;;;;;;;17.74;100.00;102157.84;20726594;27;20053;-74
2022/10/03 18:51:37;;;;;;;0.68;0.30;;;;;;;17.80;100.00;102170.88;20876112;27;20047;-74
2022/10/03 19:01:52;;;;;;;1.02;0.40;;;;;;;17.80;100.00;102160.09;20866565;27;20515;-74
2022/10/03 19:12:32;;;;;;;1.40;0.50;;;;;;;17.79;100.00;102159.25;20864672;27;20523;-74
2022/10/03 19:22:38;;;;;;;1.73;0.40;;;;;;;17.76;100.00;102154.09;20849426;27;20049;-74
2022/10/03 19:32:40;;;;;;;1.65;0.50;;;;;;;17.76;100.00;102143.31;20864503;27;20049;-74
2022/10/03 19:42:46;;;;;;;1.55;0.55;;;;;;;17.76;100.00;102151.41;20863473;27;20049;-74
2022/10/03 19:52:48;;;;;;;1.42;0.43;;;;;;;17.75;100.00;102163.13;21089247;27;20047;-74
2022/10/03 20:03:14;;;;;;;1.35;0.60;;;;;;;17.74;100.00;102156.03;21225247;27;20053;-74
2022/10/03 20:13:16;;;;;;;1.52;0.60;;;;;;;17.73;100.00;102148.91;21226895;27;20078;-75
2022/10/03 20:23:20;;;;;;;1.30;0.80;;;;;;;17.72;100.00;102143.63;21227941;27;20055;-79
2022/10/03 20:33:30;;;;;;;0.57;0.40;;;;;;;17.71;100.00;102156.25;21226511;27;20055;-75
2022/10/03 20:43:37;;;;;;;0.85;0.50;;;;;;;17.70;100.00;102146.44;21206065;27;20490;-74
2022/10/03 20:53:42;;;;;;;0.98;0.55;;;;;;;17.69;100.00;102132.09;21202158;27;20384;-75
2022/10/03 21:04:02;;;;;;;1.17;0.50;;;;;;;17.69;100.00;102145.56;21223961;27;20120;-75
2022/10/03 21:14:19;;;;;;;1.10;0.60;;;;;;;17.68;100.00;102140.28;21223834;27;20499;-75
2022/10/03 21:24:26;;;;;;;0.95;0.50;;;;;;;17.68;100.00;102126.81;21222760;27;20123;-74
2022/10/03 21:34:51;;;;;;;1.98;0.70;;;;;;;17.59;100.00;102114.84;21221904;27;20124;-74
2022/10/03 21:45:13;;;;;;;1.60;0.82;;;;;;;17.58;100.00;102134.66;21111337;27;20073;-74
2022/10/03 21:55:26;;;;;;;1.80;0.77;;;;;;;17.66;100.00;102118.84;21218715;27;20082;-74
2022/10/03 22:05:57;;;;;;;0.70;0.40;;;;;;;17.64;100.00;102101.03;21217425;27;20166;-74
2022/10/03 22:16:20;;;;;;;1.25;0.60;;;;;;;17.45;100.00;102048.47;21200627;27;20043;-74
2022/10/03 22:26:41;;;;;;;1.33;0.85;;;;;;;17.63;100.00;102080.47;21217999;27;20455;-74
2022/10/03 22:36:43;;;;;;;0.70;0.60;;;;;;;17.55;100.00;102048.72;21220157;27;20043;-74
2022/10/03 22:46:48;;;;;;;1.20;0.60;;;;;;;17.63;100.00;102042.75;21132801;27;20053;-75
2022/10/03 22:56:57;;;;;;;1.80;0.50;;;;;;;17.62;100.00;102038.34;21211204;27;20423;-75
2022/10/03 23:07:01;;;;;;;0.85;0.60;;;;;;;17.62;100.00;102038.34;21211281;27;20129;-75
2022/10/03 23:17:19;;;;;;;0.73;0.53;;;;;;;17.63;100.00;102042.75;21213905;27;20055;-74
2022/10/03 23:27:23;;;;;;;1.02;0.60;;;;;;;17.61;100.00;102031.25;21208581;27;20498;-74
2022/10/03 23:37:39;;;;;;;1.05;0.52;;;;;;;17.61;100.00;102025.84;21210019;27;20480;-75
2022/10/03 23:48:01;;;;;;;1.25;0.55;;;;;;;17.20;100.00;101952.41;21148112;27;20043;-75
2022/10/03 23:58:21;;;;;;;0.77;0.40;;;;;;;17.60;100.00;102022.31;21215627;27;20130;-75
